Home > Products > Valid Products > TAF

000
FTUS43 KDDC 271120
TAFHYS
TAF
KHYS 271120Z 2712/2812 17006KT P6SM SKC
     FM271500 18015G25KT P6SM BKN250
     FM272300 18010KT P6SM BKN250=



000
FTUS43 KDDC 271120
TAFGCK
TAF
KGCK 271120Z 2712/2812 19008KT P6SM SKC
     FM271500 19012G22KT P6SM BKN250
     FM272300 18010KT P6SM BKN250=



000
FTUS43 KDDC 271120
TAFDDC
TAF
KDDC 271120Z 2712/2812 19008KT P6SM SKC
     FM271500 19015G25KT P6SM BKN250
     FM272300 18012G18KT P6SM BKN250=



000
FTUS43 KDDC 271120
TAFGCK
TAF
KGCK 271120Z 2712/2812 19008KT P6SM SKC
     FM271500 19012G22KT P6SM BKN250
     FM272300 18010KT P6SM BKN250=



000
FTUS43 KDDC 271120
TAFDDC
TAF
KDDC 271120Z 2712/2812 19008KT P6SM SKC
     FM271500 19015G25KT P6SM BKN250
     FM272300 18012G18KT P6SM BKN250=



000
FTUS43 KDDC 271120
TAFHYS
TAF
KHYS 271120Z 2712/2812 17006KT P6SM SKC
     FM271500 18015G25KT P6SM BKN250
     FM272300 18010KT P6SM BKN250=



000
FTUS43 KDDC 270527
TAFGCK
TAF
KGCK 270527Z 2706/2806 VRB06KT P6SM SKC
     FM271500 18012G20KT P6SM SKC=



000
FTUS43 KDDC 270527
TAFDDC
TAF
KDDC 270527Z 2706/2806 VRB06KT P6SM SKC
     FM271500 18015G25KT P6SM SKC=



000
FTUS43 KDDC 270527
TAFHYS
TAF
KHYS 270527Z 2706/2806 VRB06KT P6SM BKN070
     FM271500 18015G25KT P6SM SKC=



000
FTUS43 KDDC 270527
TAFHYS
TAF
KHYS 270527Z 2706/2806 VRB06KT P6SM BKN070
     FM271500 18015G25KT P6SM SKC=



000
FTUS43 KDDC 270527
TAFGCK
TAF
KGCK 270527Z 2706/2806 VRB06KT P6SM SKC
     FM271500 18012G20KT P6SM SKC=



000
FTUS43 KDDC 270527
TAFDDC
TAF
KDDC 270527Z 2706/2806 VRB06KT P6SM SKC
     FM271500 18015G25KT P6SM SKC=



000
FTUS43 KDDC 262320
TAFDDC
TAF
KDDC 262320Z 2700/2724 36010KT P6SM SCT080
     FM270300 VRB05KT P6SM BKN080
     FM271500 18018G28KT P6SM SKC=



000
FTUS43 KDDC 262320
TAFGCK
TAF
KGCK 262320Z 2700/2724 01008KT P6SM SCT080
     FM270300 VRB05KT P6SM BKN090
     FM271500 18012KT P6SM SKC=



000
FTUS43 KDDC 262320
TAFGCK
TAF
KGCK 262320Z 2700/2724 01008KT P6SM SCT080
     FM270300 VRB05KT P6SM BKN090
     FM271500 18012KT P6SM SKC=



000
FTUS43 KDDC 262320
TAFHYS
TAF
KHYS 262320Z 2700/2724 34010KT P6SM OVC090
     FM270300 VRB05KT P6SM BKN060
     FM271500 18018G28KT P6SM SKC=



000
FTUS43 KDDC 262320
TAFDDC
TAF
KDDC 262320Z 2700/2724 36010KT P6SM SCT080
     FM270300 VRB05KT P6SM BKN080
     FM271500 18018G28KT P6SM SKC=



000
FTUS43 KDDC 262320
TAFHYS
TAF
KHYS 262320Z 2700/2724 34010KT P6SM OVC090
     FM270300 VRB05KT P6SM BKN060
     FM271500 18018G28KT P6SM SKC=



000
FTUS43 KDDC 261720
TAFDDC
TAF
KDDC 261720Z 2618/2718 33018G27KT P6SM SCT100 BKN250
     FM270000 36004KT P6SM OVC100
     FM270300 19006KT P6SM BKN250
     FM271500 18016KT P6SM SKC=



000
FTUS43 KDDC 261720
TAFHYS
TAF
KHYS 261720Z 2618/2718 33018G27KT P6SM BKN100
     FM270000 01005KT P6SM BKN250
     FM270300 VRB03KT P6SM OVC100
     FM271200 16007KT P6SM BKN250=



000
FTUS43 KDDC 261720
TAFGCK
TAF
KGCK 261720Z 2618/2718 33015G24KT P6SM SCT080 BKN200
     FM270000 01004KT P6SM OVC100
     FM270300 19005KT P6SM BKN250=



000
FTUS43 KDDC 261720
TAFGCK
TAF
KGCK 261720Z 2618/2718 33015G24KT P6SM SCT080 BKN200
     FM270000 01004KT P6SM OVC100
     FM270300 19005KT P6SM BKN250=



000
FTUS43 KDDC 261720
TAFDDC
TAF
KDDC 261720Z 2618/2718 33018G27KT P6SM SCT100 BKN250
     FM270000 36004KT P6SM OVC100
     FM270300 19006KT P6SM BKN250
     FM271500 18016KT P6SM SKC=



000
FTUS43 KDDC 261720
TAFHYS
TAF
KHYS 261720Z 2618/2718 33018G27KT P6SM BKN100
     FM270000 01005KT P6SM BKN250
     FM270300 VRB03KT P6SM OVC100
     FM271200 16007KT P6SM BKN250=



000
FTUS43 KDDC 261139
TAFHYS
TAF
KHYS 261139Z 2612/2712 31015KT P6SM FEW040 OVC120
     FM261500 33018G27KT P6SM BKN100
     FM262300 VRB06KT P6SM SCT150=



000
FTUS43 KDDC 261139
TAFDDC
TAF
KDDC 261139Z 2612/2712 33014G21KT P6SM OVC090
     FM261500 33018G27KT P6SM SCT100 BKN250
     FM262300 VRB06KT P6SM SKC=



000
FTUS43 KDDC 261139
TAFGCK
TAF
KGCK 261139Z 2612/2712 35015G20KT P6SM OVC100
     FM261500 33015G24KT P6SM SCT080 BKN200
     FM262300 VRB06KT P6SM SKC=



000
FTUS43 KDDC 261139
TAFGCK
TAF
KGCK 261139Z 2612/2712 35015G20KT P6SM OVC100
     FM261500 33015G24KT P6SM SCT080 BKN200
     FM262300 VRB06KT P6SM SKC=



000
FTUS43 KDDC 261139
TAFHYS
TAF
KHYS 261139Z 2612/2712 31015KT P6SM FEW040 OVC120
     FM261500 33018G27KT P6SM BKN100
     FM262300 VRB06KT P6SM SCT150=



000
FTUS43 KDDC 261139
TAFDDC
TAF
KDDC 261139Z 2612/2712 33014G21KT P6SM OVC090
     FM261500 33018G27KT P6SM SCT100 BKN250
     FM262300 VRB06KT P6SM SKC=



000
FTUS43 KDDC 261000 AAC
TAFHYS
TAF AMD
KHYS 261000Z 2610/2706 31015G20KT P6SM FEW040 FEW120
     FM261500 33018G27KT P6SM BKN100
     FM262300 VRB06KT P6SM BKN150=



000
FTUS43 KDDC 261000 AAC
TAFHYS
TAF AMD
KHYS 261000Z 2610/2706 31015G20KT P6SM FEW040 FEW120
     FM261500 33018G27KT P6SM BKN100
     FM262300 VRB06KT P6SM BKN150=



000
FTUS43 KDDC 261000 AAC
TAFHYS
TAF AMD
KHYS 261000Z 2610/2706 31015G20KT P6SM FEW040 FEW120
     FM261500 33018G27KT P6SM BKN100
     FM262300 VRB06KT P6SM BKN150=



000
FTUS43 KDDC 261000 AAC
TAFHYS
TAF AMD
KHYS 261000Z 2610/2706 31015G20KT P6SM FEW040 FEW120
     FM261500 33018G27KT P6SM BKN100
     FM262300 VRB06KT P6SM BKN150=



000
FTUS43 KDDC 260902 AAB
TAFGCK
TAF AMD
KGCK 260902Z 2609/2706 35015G20KT P6SM OVC100
     FM261500 33015G21KT P6SM SCT080 BKN200
     FM262300 VRB06KT P6SM FEW200=



000
FTUS43 KDDC 260902 AAB
TAFGCK
TAF AMD
KGCK 260902Z 2609/2706 35015G20KT P6SM OVC100
     FM261500 33015G21KT P6SM SCT080 BKN200
     FM262300 VRB06KT P6SM FEW200=



000
FTUS43 KDDC 260801 AAB
TAFHYS
TAF AMD
KHYS 260801Z 2608/2706 33010KT P6SM OVC100
     FM261500 33018G27KT P6SM BKN100
     FM262300 VRB06KT P6SM BKN150=



000
FTUS43 KDDC 260801 AAB
TAFHYS
TAF AMD
KHYS 260801Z 2608/2706 33010KT P6SM OVC100
     FM261500 33018G27KT P6SM BKN100
     FM262300 VRB06KT P6SM BKN150=



000
FTUS43 KDDC 260726 AAA
TAFGCK
TAF AMD
KGCK 260726Z 2607/2706 36020G31KT P6SM OVC100
     FM261500 33015G21KT P6SM SCT080 BKN200
     FM262300 VRB06KT P6SM FEW200=



000
FTUS43 KDDC 260726 AAA
TAFGCK
TAF AMD
KGCK 260726Z 2607/2706 36020G31KT P6SM OVC100
     FM261500 33015G21KT P6SM SCT080 BKN200
     FM262300 VRB06KT P6SM FEW200=



000
FTUS43 KDDC 260648 AAB
TAFDDC
TAF AMD
KDDC 260648Z 2607/2706 33014G21KT P6SM BKN080
     FM261500 33018G27KT P6SM SCT100 BKN250
     FM262300 VRB06KT P6SM FEW250=



000
FTUS43 KDDC 260648 AAB
TAFDDC
TAF AMD
KDDC 260648Z 2607/2706 33014G21KT P6SM BKN080
     FM261500 33018G27KT P6SM SCT100 BKN250
     FM262300 VRB06KT P6SM FEW250=



000
FTUS43 KDDC 260619 AAA
TAFHYS
TAF AMD
KHYS 260619Z 2606/2706 33013G20KT P6SM OVC070
     FM261500 33018G27KT P6SM BKN100
     FM262300 VRB06KT P6SM BKN150=



000
FTUS43 KDDC 260619 AAA
TAFHYS
TAF AMD
KHYS 260619Z 2606/2706 33013G20KT P6SM OVC070
     FM261500 33018G27KT P6SM BKN100
     FM262300 VRB06KT P6SM BKN150=



000
FTUS43 KDDC 260520
TAFDDC
TAF
KDDC 260520Z 2606/2706 22008KT P6SM FEW090
     FM261500 33018G27KT P6SM SCT100 BKN250
     FM262300 VRB06KT P6SM FEW250=



000
FTUS43 KDDC 260520
TAFDDC
TAF
KDDC 260520Z 2606/2706 22008KT P6SM SCT090
     FM261500 33018G27KT P6SM SCT100 BKN250
     FM262300 VRB06KT P6SM FEW250=



000
FTUS43 KDDC 260520
TAFDDC
TAF
KDDC 260520Z 2606/2706 22008KT P6SM FEW090
     FM261500 33018G27KT P6SM SCT100 BKN250
     FM262300 VRB06KT P6SM FEW250=



000
FTUS43 KDDC 260520
TAFHYS
TAF
KHYS 260520Z 2606/2706 VRB06KT P6SM BKN080
     FM261500 33018G27KT P6SM BKN100
     FM262300 VRB06KT P6SM BKN150=



000
FTUS43 KDDC 260520
TAFHYS
TAF
KHYS 260520Z 2606/2706 VRB06KT P6SM BKN080
     FM261500 33018G27KT P6SM BKN100
     FM262300 VRB06KT P6SM BKN150=



000
FTUS43 KDDC 260520
TAFGCK
TAF
KGCK 260520Z 2606/2706 34014KT P6SM BKN080
     FM261500 33015G21KT P6SM SCT080 BKN200
     FM262300 VRB06KT P6SM FEW200=



000
FTUS43 KDDC 260520
TAFGCK
TAF
KGCK 260520Z 2606/2706 34014KT P6SM BKN080
     FM261500 33015G21KT P6SM SCT080 BKN200
     FM262300 VRB06KT P6SM FEW200=



000
FTUS43 KDDC 260520
TAFDDC
TAF
KDDC 260520Z 2606/2706 22008KT P6SM SCT090
     FM261500 33018G27KT P6SM SCT100 BKN250
     FM262300 VRB06KT P6SM FEW250=



000
FTUS43 KDDC 252320
TAFGCK
TAF
KGCK 252320Z 2600/2624 24008KT P6SM BKN150
     FM260400 31012KT P6SM BKN100
     FM261500 33016G22KT P6SM SKC=



000
FTUS43 KDDC 252320
TAFGCK
TAF
KGCK 252320Z 2600/2624 24008KT P6SM BKN150
     FM260400 31012KT P6SM BKN100
     FM261500 33016G22KT P6SM SKC=



000
FTUS43 KDDC 252320
TAFDDC
TAF
KDDC 252320Z 2600/2624 23008KT P6SM BKN150
     FM260600 32012KT P6SM BKN100
     FM261500 33018G27KT P6SM SKC=



000
FTUS43 KDDC 252320
TAFHYS
TAF
KHYS 252320Z 2600/2624 21008KT P6SM BKN120
     FM260400 32012KT P6SM BKN100
     FM261500 33018G27KT P6SM SKC=



000
FTUS43 KDDC 252320
TAFDDC
TAF
KDDC 252320Z 2600/2624 23008KT P6SM BKN150
     FM260600 32012KT P6SM BKN100
     FM261500 33018G27KT P6SM SKC=



000
FTUS43 KDDC 252320
TAFHYS
TAF
KHYS 252320Z 2600/2624 21008KT P6SM BKN120
     FM260400 32012KT P6SM BKN100
     FM261500 33018G27KT P6SM SKC=



000
FTUS43 KDDC 251720
TAFDDC
TAF
KDDC 251720Z 2518/2618 22010KT P6SM SKC
     FM251900 22015G24KT P6SM SCT200
     FM260000 26008KT P6SM BKN180
     FM260500 32012KT P6SM BKN100=



000
FTUS43 KDDC 251720
TAFGCK
TAF
KGCK 251720Z 2518/2618 24010KT P6SM SKC
     FM251900 23015G25KT P6SM SCT200
     FM260000 26008KT P6SM BKN180
     FM260400 31012KT P6SM BKN100=



000
FTUS43 KDDC 251720
TAFHYS
TAF
KHYS 251720Z 2518/2618 24006KT P6SM SKC
     FM251900 23015G25KT P6SM SCT200
     FM260000 26010KT P6SM BKN180
     FM260600 32012KT P6SM BKN100=



000
FTUS43 KDDC 251720
TAFGCK
TAF
KGCK 251720Z 2518/2618 24010KT P6SM SKC
     FM251900 23015G25KT P6SM SCT200
     FM260000 26008KT P6SM BKN180
     FM260400 31012KT P6SM BKN100=



000
FTUS43 KDDC 251134
TAFGCK
TAF
KGCK 251134Z 2512/2612 24007KT P6SM SKC
     FM251900 23015G25KT P6SM BKN250
     FM260000 20008KT P6SM BKN180
     FM260400 31012KT P6SM BKN140=



000
FTUS43 KDDC 251134
TAFDDC
TAF
KDDC 251134Z 2512/2612 27008KT P6SM SKC
     FM251900 22015G24KT P6SM BKN250
     FM260000 20008KT P6SM BKN180
     FM260500 32012KT P6SM BKN140=



000
FTUS43 KDDC 251134
TAFHYS
TAF
KHYS 251134Z 2512/2612 24006KT P6SM SKC
     FM251900 23015G25KT P6SM SCT250
     FM260000 21010KT P6SM BKN180
     FM260600 32012KT P6SM BKN140=



000
FTUS43 KDDC 251134
TAFHYS
TAF
KHYS 251134Z 2512/2612 24006KT P6SM SKC
     FM251900 23015G25KT P6SM SCT250
     FM260000 21010KT P6SM BKN180
     FM260600 32012KT P6SM BKN140=



000
FTUS43 KDDC 251134
TAFDDC
TAF
KDDC 251134Z 2512/2612 27008KT P6SM SKC
     FM251900 22015G24KT P6SM BKN250
     FM260000 20008KT P6SM BKN180
     FM260500 32012KT P6SM BKN140=



000
FTUS43 KDDC 251134
TAFGCK
TAF
KGCK 251134Z 2512/2612 24007KT P6SM SKC
     FM251900 23015G25KT P6SM BKN250
     FM260000 20008KT P6SM BKN180
     FM260400 31012KT P6SM BKN140=



000
FTUS43 KDDC 250756 AAA
TAFDDC
TAF AMD
KDDC 250756Z 2508/2606 31010KT P6SM BKN060
     FM251500 23015G25KT P6SM SKC=



000
FTUS43 KDDC 250520
TAFHYS
TAF
KHYS 250520Z 2506/2606 32005KT P6SM SCT080
     FM251500 23015G25KT P6SM SKC=



000
FTUS43 KDDC 250520
TAFDDC
TAF
KDDC 250520Z 2506/2606 32011KT P6SM SCT100
     FM251500 23015G25KT P6SM SKC=



000
FTUS43 KDDC 250520
TAFGCK
TAF
KGCK 250520Z 2506/2606 31011KT P6SM SCT080
     FM251500 23015G25KT P6SM SKC=



000
FTUS43 KDDC 250520
TAFHYS
TAF
KHYS 250520Z 2506/2606 32005KT P6SM SCT080
     FM251500 23015G25KT P6SM SKC=



000
FTUS43 KDDC 250520
TAFGCK
TAF
KGCK 250520Z 2506/2606 31011KT P6SM SCT080
     FM251500 23015G25KT P6SM SKC=



000
FTUS43 KDDC 250520
TAFDDC
TAF
KDDC 250520Z 2506/2606 32011KT P6SM SCT100
     FM251500 23015G25KT P6SM SKC=



000
FTUS43 KDDC 242328
TAFGCK
TAF
KGCK 242328Z 2500/2524 34008KT P6SM SCT100
     FM251500 23015G25KT P6SM SKC=



000
FTUS43 KDDC 242328
TAFDDC
TAF
KDDC 242328Z 2500/2524 33008KT P6SM SCT100
     FM251500 23015G25KT P6SM SKC=



000
FTUS43 KDDC 242328
TAFHYS
TAF
KHYS 242328Z 2500/2524 35008KT P6SM SCT100
     FM251500 23015G25KT P6SM SKC=



000
FTUS43 KDDC 242328
TAFHYS
TAF
KHYS 242328Z 2500/2524 35008KT P6SM SCT100
     FM251500 23015G25KT P6SM SKC=



000
FTUS43 KDDC 242328
TAFDDC
TAF
KDDC 242328Z 2500/2524 33008KT P6SM SCT100
     FM251500 23015G25KT P6SM SKC=



000
FTUS43 KDDC 242328
TAFGCK
TAF
KGCK 242328Z 2500/2524 34008KT P6SM SCT100
     FM251500 23015G25KT P6SM SKC=



000
FTUS43 KDDC 241720
TAFHYS
TAF
KHYS 241720Z 2418/2518 31015G25KT P6SM FEW120
     FM242300 35008KT P6SM SCT120
     FM251500 23015G25KT P6SM SKC=



000
FTUS43 KDDC 241720
TAFGCK
TAF
KGCK 241720Z 2418/2518 32015G25KT P6SM FEW120
     FM242300 34008KT P6SM SCT120
     FM251500 23015G25KT P6SM SKC=



000
FTUS43 KDDC 241720
TAFDDC
TAF
KDDC 241720Z 2418/2518 32015G25KT P6SM FEW120
     FM242300 33008KT P6SM SCT120
     FM251500 23015G25KT P6SM SKC=



000
FTUS43 KDDC 241720
TAFDDC
TAF
KDDC 241720Z 2418/2518 32015G25KT P6SM FEW120
     FM242300 33008KT P6SM SCT120
     FM251500 23015G25KT P6SM SKC=



000
FTUS43 KDDC 241720
TAFGCK
TAF
KGCK 241720Z 2418/2518 32015G25KT P6SM FEW120
     FM242300 34008KT P6SM SCT120
     FM251500 23015G25KT P6SM SKC=



000
FTUS43 KDDC 241720
TAFHYS
TAF
KHYS 241720Z 2418/2518 31015G25KT P6SM FEW120
     FM242300 35008KT P6SM SCT120
     FM251500 23015G25KT P6SM SKC=



    US Dept of Commerce
    National Oceanic and Atmospheric Administration
    National Weather Service
    1325 East West Highway
    Silver Spring, MD 20910
    Page Author: NWS Internet Services Team
Disclaimer
Information Quality
Credits
Glossary
Privacy Policy
Freedom of Information Act (FOIA)
About Us
Career Opportunities